Flight Track Log - Related Links

Times and Time Zones

All times are in EDT time to prevent confusion due to time zone crossing. See the USC105 flight status page for this flight to view local times or setup timezone preferences in your user account.

Time Position Orientation Groundspeed Altitude Reporting Facility
EDT Latitude Longitude Course Direction KTS MPH feet Rate Location/Type
Tue 05:44:30 AM 41.8667 -88.2500 143° Southeast 119 137 1,700  Level Chicago TRACON
Tue 05:45:30 AM 41.8500 -88.2333 143° Southeast 111 128 3,000 1,224 Climbing Chicago TRACON
Tue 05:46:08 AM 41.8356 -88.2139 135° Southeast 114 131 3,700 1,091 Climbing Chicago Center
Tue 05:47:09 AM 41.8394 -88.1814 81° East 94 108 4,800 1,140 Climbing Chicago Center
Tue 05:48:09 AM 41.8439 -88.1475 80° East 92 106 6,000 1,091 Climbing Chicago Center
Tue 05:49:10 AM 41.8475 -88.1119 82° East 94 108 7,000 492 Climbing Chicago Center
Tue 05:50:11 AM 41.8533 -88.0642 81° East 117 135 7,000  Level Chicago Center
Tue 05:51:11 AM 41.8581 -88.0058 84° East 148 170 7,000  Level Chicago Center
Tue 05:52:11 AM 41.8633 -87.9511 83° East 150 173 7,000  Level Chicago Center
Tue 05:53:12 AM 41.8681 -87.8933 84° East 154 177 7,000  Level Chicago Center
Tue 05:54:12 AM 41.8742 -87.8333 82° East 160 184 7,000  Level Chicago Center
Tue 05:55:13 AM 41.8794 -87.7733 83° East 162 186 7,000  Level Chicago Center
Tue 05:56:14 AM 41.8856 -87.7125 82° East 164 189 7,000  Level Chicago Center
Tue 05:57:14 AM 41.8914 -87.6522 83° East 166 191 7,000  Level Chicago Center
Tue 05:58:15 AM 41.8992 -87.5806 82° East 164 189 7,000  Level Chicago Center
Tue 05:59:15 AM 41.9050 -87.5217 82° East 161 185 7,000  Level Chicago Center
Tue 06:00:16 AM 41.9117 -87.4608 82° East 165 190 7,000  Level Chicago Center
Tue 06:01:16 AM 41.9175 -87.3992 83° East 166 191 7,000  Level Chicago Center
Tue 06:02:17 AM 41.9244 -87.3397 81° East 163 188 7,000  Level Chicago Center
Tue 06:03:18 AM 41.9306 -87.2797 82° East 163 188 7,000  Level Chicago Center
Tue 06:04:18 AM 41.9358 -87.2186 83° East 164 189 7,000  Level Chicago Center
Tue 06:05:19 AM 41.9422 -87.1575 82° East 165 190 7,000  Level Chicago Center
Tue 06:06:19 AM 41.9492 -87.0975 81° East 165 190 7,000  Level Chicago Center
Tue 06:07:20 AM 41.9550 -87.0353 83° East 167 192 7,000  Level Chicago Center
Tue 06:08:21 AM 41.9589 -86.9742 85° East 165 190 7,000  Level Chicago Center
Tue 06:09:21 AM 41.9656 -86.9133 82° East 165 190 7,000  Level Chicago Center
Tue 06:10:22 AM 41.9725 -86.8514 81° East 168 193 7,000  Level Chicago Center
Tue 06:11:22 AM 41.9769 -86.7892 84° East 167 192 7,000  Level Chicago Center
Tue 06:12:23 AM 41.9833 -86.7272 82° East 168 193 7,000  Level Chicago Center
Tue 06:13:24 AM 41.9894 -86.6633 83° East 168 193 7,000  Level Chicago Center
Tue 06:14:24 AM 41.9942 -86.6008 84° East 169 194 7,000  Level Chicago Center
Tue 06:15:25 AM 42.0000 -86.5383 83° East 169 194 7,000  Level Chicago Center
Tue 06:16:25 AM 42.0058 -86.4758 83° East 169 194 7,000 -198 Level Chicago Center
Tue 06:17:26 AM 42.0106 -86.4106 84° East 174 200 6,600 -590 Descending Chicago Center
Tue 06:18:27 AM 42.0200 -86.3275 81° East 184 212 5,800 -694 Descending Chicago Center
Tue 06:19:27 AM 42.0256 -86.2542 84° East 195 224 5,200 -397 Descending Chicago Center
Tue 06:20:28 AM 42.0333 -86.1825 82° East 196 226 5,000 -99 Descending Chicago Center
Tue 06:21:28 AM 42.0394 -86.1147 83° East 186 214 5,000  Level Chicago Center
Tue 06:22:29 AM 42.0447 -86.0486 84° East 179 206 5,000  Level Chicago Center
Tue 06:23:30 AM 42.0500 -85.9822 84° East 179 206 5,000  Level Chicago Center
Tue 06:24:30 AM 42.0564 -85.9161 83° East 178 205 5,000  Level Chicago Center
Tue 06:25:31 AM 42.0619 -85.8500 84° East 178 205 5,000  Level Chicago Center
Tue 06:26:31 AM 42.0678 -85.7839 83° East 178 205 5,000  Level Chicago Center
Tue 06:27:32 AM 42.0731 -85.7183 84° East 178 205 5,000  Level Chicago Center
Tue 06:28:33 AM 42.0786 -85.6531 83° East 176 203 5,000  Level Chicago Center
Tue 06:29:33 AM 42.0836 -85.5889 84° East 174 200 5,000  Level Chicago Center
Tue 06:30:34 AM 42.0903 -85.5250 82° East 173 199 5,000  Level Chicago Center
Tue 06:31:34 AM 42.0942 -85.4617 85° East 171 197 5,000  Level Chicago Center
Tue 06:32:35 AM 42.0997 -85.3956 84° East 175 201 5,000  Level Chicago Center
Tue 06:33:36 AM 42.1058 -85.3297 83° East 177 204 5,000  Level Chicago Center
Tue 06:34:36 AM 42.1108 -85.2628 84° East 178 205 5,000  Level Chicago Center
Tue 06:35:37 AM 42.1164 -85.1964 84° East 178 205 5,000  Level Chicago Center
Tue 06:36:37 AM 42.1222 -85.1300 83° East 178 205 5,000  Level Chicago Center
Tue 06:37:38 AM 42.1267 -85.0633 85° East 179 206 5,000  Level Chicago Center
Tue 06:38:39 AM 42.1317 -84.9983 84° East 175 201 5,000  Level Chicago Center
Tue 06:39:39 AM 42.1367 -84.9319 84° East 177 204 5,000  Level Chicago Center
Tue 06:40:40 AM 42.1428 -84.8656 83° East 178 205 5,000  Level Chicago Center
Tue 06:41:40 AM 42.1478 -84.8000 84° East 177 204 5,000  Level Chicago Center
Tue 06:42:41 AM 42.1525 -84.7353 84° East 175 201 5,000  Level Chicago Center
Tue 06:43:42 AM 42.1572 -84.6686 85° East 176 203 5,000  Level Chicago Center
Tue 06:44:42 AM 42.1642 -84.5903 83° East 176 203 5,000  Level Chicago Center
Tue 06:45:43 AM 42.1675 -84.5250 86° East 175 201 5,000  Level Chicago Center
Tue 06:46:44 AM 42.1711 -84.4686 85° East 177 204 5,000  Level Chicago Center
Tue 06:47:44 AM 42.1764 -84.4025 84° East 178 205 5,000  Level Chicago Center
Tue 06:48:30 AM 42.1819 -84.3439 83° East 177 204 5,000  Level Cleveland Center
Tue 06:49:24 AM 42.1858 -84.2825 85° East 176 203 5,000  Level Cleveland Center
Tue 06:50:25 AM 42.1881 -84.2181 87° East 178 205 5,000  Level Cleveland Center
Tue 06:51:26 AM 42.1964 -84.1514 80° East 175 201 5,000 -331 Level Cleveland Center
Tue 06:52:32 AM 42.2008 -84.0758 85° East 187 215 4,300 -636 Descending Cleveland Center

Login

Don't have an account? Register now (free) for customized features, flight alerts, and more!